sensor_id;sensor_type;location;lat;lon;timestamp;P1;durP1;ratioP1;P2;durP2;ratioP2
6374;SDS011;35400;45.472;-122.822;2023-03-14T00:01:43;0.33;;;0.33;;
6374;SDS011;35400;45.472;-122.822;2023-03-14T00:04:11;0.20;;;0.20;;
6374;SDS011;35400;45.472;-122.822;2023-03-14T00:06:38;0.33;;;0.33;;
6374;SDS011;35400;45.472;-122.822;2023-03-14T00:09:05;0.30;;;0.30;;
6374;SDS011;35400;45.472;-122.822;2023-03-14T00:11:32;0.57;;;0.30;;
6374;SDS011;35400;45.472;-122.822;2023-03-14T00:14:00;0.60;;;0.50;;
6374;SDS011;35400;45.472;-122.822;2023-03-14T00:16:27;0.30;;;0.30;;
6374;SDS011;35400;45.472;-122.822;2023-03-14T00:18:53;0.40;;;0.40;;
6374;SDS011;35400;45.472;-122.822;2023-03-14T00:21:20;0.30;;;0.30;;
6374;SDS011;35400;45.472;-122.822;2023-03-14T00:23:47;0.30;;;0.30;;
6374;SDS011;35400;45.472;-122.822;2023-03-14T00:26:15;0.20;;;0.20;;
6374;SDS011;35400;45.472;-122.822;2023-03-14T00:28:44;0.60;;;0.40;;
6374;SDS011;35400;45.472;-122.822;2023-03-14T00:31:12;0.27;;;0.27;;
6374;SDS011;35400;45.472;-122.822;2023-03-14T00:33:41;0.50;;;0.47;;
6374;SDS011;35400;45.472;-122.822;2023-03-14T00:36:10;0.37;;;0.37;;
6374;SDS011;35400;45.472;-122.822;2023-03-14T00:38:39;0.30;;;0.30;;
6374;SDS011;35400;45.472;-122.822;2023-03-14T00:41:11;0.50;;;0.40;;
6374;SDS011;35400;45.472;-122.822;2023-03-14T00:43:40;0.33;;;0.33;;
6374;SDS011;35400;45.472;-122.822;2023-03-14T00:46:07;0.33;;;0.33;;
6374;SDS011;35400;45.472;-122.822;2023-03-14T00:48:34;1.07;;;0.40;;
6374;SDS011;35400;45.472;-122.822;2023-03-14T00:51:02;0.30;;;0.30;;
6374;SDS011;35400;45.472;-122.822;2023-03-14T00:53:30;0.50;;;0.50;;
6374;SDS011;35400;45.472;-122.822;2023-03-14T00:55:57;0.37;;;0.30;;
6374;SDS011;35400;45.472;-122.822;2023-03-14T00:58:29;0.37;;;0.37;;
6374;SDS011;35400;45.472;-122.822;2023-03-14T01:00:55;0.40;;;0.40;;
6374;SDS011;35400;45.472;-122.822;2023-03-14T01:03:24;0.53;;;0.40;;
6374;SDS011;35400;45.472;-122.822;2023-03-14T01:05:51;0.30;;;0.30;;
6374;SDS011;35400;45.472;-122.822;2023-03-14T01:08:18;0.30;;;0.30;;
6374;SDS011;35400;45.472;-122.822;2023-03-14T01:10:44;0.50;;;0.30;;
6374;SDS011;35400;45.472;-122.822;2023-03-14T01:13:11;0.70;;;0.40;;
6374;SDS011;35400;45.472;-122.822;2023-03-14T01:15:38;2.30;;;0.30;;
6374;SDS011;35400;45.472;-122.822;2023-03-14T01:18:05;0.30;;;0.30;;
6374;SDS011;35400;45.472;-122.822;2023-03-14T01:20:32;0.67;;;0.60;;
6374;SDS011;35400;45.472;-122.822;2023-03-14T01:22:59;0.30;;;0.30;;
6374;SDS011;35400;45.472;-122.822;2023-03-14T01:25:26;0.40;;;0.33;;
6374;SDS011;35400;45.472;-122.822;2023-03-14T01:27:53;0.40;;;0.40;;
6374;SDS011;35400;45.472;-122.822;2023-03-14T01:30:21;0.63;;;0.50;;
6374;SDS011;35400;45.472;-122.822;2023-03-14T01:32:48;1.50;;;0.80;;
6374;SDS011;35400;45.472;-122.822;2023-03-14T01:35:14;1.60;;;0.60;;
6374;SDS011;35400;45.472;-122.822;2023-03-14T01:37:41;0.40;;;0.40;;
6374;SDS011;35400;45.472;-122.822;2023-03-14T01:40:13;0.47;;;0.40;;
6374;SDS011;35400;45.472;-122.822;2023-03-14T01:42:55;0.50;;;0.30;;
6374;SDS011;35400;45.472;-122.822;2023-03-14T01:48:25;0.63;;;0.30;;
6374;SDS011;35400;45.472;-122.822;2023-03-14T01:50:57;0.97;;;0.50;;
6374;SDS011;35400;45.472;-122.822;2023-03-14T01:53:26;0.40;;;0.40;;
6374;SDS011;35400;45.472;-122.822;2023-03-14T01:55:54;0.77;;;0.47;;
6374;SDS011;35400;45.472;-122.822;2023-03-14T01:58:23;0.50;;;0.50;;
6374;SDS011;35400;45.472;-122.822;2023-03-14T02:00:53;0.40;;;0.40;;
6374;SDS011;35400;45.472;-122.822;2023-03-14T02:03:23;0.50;;;0.50;;
6374;SDS011;35400;45.472;-122.822;2023-03-14T02:05:53;0.77;;;0.50;;
6374;SDS011;35400;45.472;-122.822;2023-03-14T02:08:22;1.83;;;0.87;;
6374;SDS011;35400;45.472;-122.822;2023-03-14T02:10:53;0.73;;;0.50;;
6374;SDS011;35400;45.472;-122.822;2023-03-14T02:13:43;1.50;;;0.40;;
6374;SDS011;35400;45.472;-122.822;2023-03-14T02:16:44;0.60;;;0.60;;
6374;SDS011;35400;45.472;-122.822;2023-03-14T02:22:33;1.17;;;0.70;;
6374;SDS011;35400;45.472;-122.822;2023-03-14T02:27:48;0.50;;;0.50;;
6374;SDS011;35400;45.472;-122.822;2023-03-14T02:30:17;0.50;;;0.50;;
6374;SDS011;35400;45.472;-122.822;2023-03-14T02:32:48;0.70;;;0.60;;
6374;SDS011;35400;45.472;-122.822;2023-03-14T02:35:27;1.53;;;0.60;;
6374;SDS011;35400;45.472;-122.822;2023-03-14T02:38:05;0.87;;;0.50;;
6374;SDS011;35400;45.472;-122.822;2023-03-14T02:40:37;0.87;;;0.47;;
6374;SDS011;35400;45.472;-122.822;2023-03-14T02:43:04;1.80;;;0.60;;
6374;SDS011;35400;45.472;-122.822;2023-03-14T02:45:36;0.73;;;0.67;;
6374;SDS011;35400;45.472;-122.822;2023-03-14T02:48:07;0.70;;;0.70;;
6374;SDS011;35400;45.472;-122.822;2023-03-14T02:50:39;0.80;;;0.80;;
6374;SDS011;35400;45.472;-122.822;2023-03-14T02:53:06;0.77;;;0.77;;
6374;SDS011;35400;45.472;-122.822;2023-03-14T02:55:33;0.70;;;0.70;;
6374;SDS011;35400;45.472;-122.822;2023-03-14T02:58:06;1.20;;;1.10;;
6374;SDS011;35400;45.472;-122.822;2023-03-14T03:00:33;0.80;;;0.80;;
6374;SDS011;35400;45.472;-122.822;2023-03-14T03:03:03;1.03;;;0.90;;
6374;SDS011;35400;45.472;-122.822;2023-03-14T03:05:32;1.20;;;0.90;;
6374;SDS011;35400;45.472;-122.822;2023-03-14T03:07:59;1.13;;;0.90;;
6374;SDS011;35400;45.472;-122.822;2023-03-14T03:10:26;0.73;;;0.70;;
6374;SDS011;35400;45.472;-122.822;2023-03-14T03:12:54;1.40;;;0.93;;
6374;SDS011;35400;45.472;-122.822;2023-03-14T03:15:24;0.73;;;0.73;;
6374;SDS011;35400;45.472;-122.822;2023-03-14T03:17:52;1.30;;;0.60;;
6374;SDS011;35400;45.472;-122.822;2023-03-14T03:20:19;1.97;;;1.00;;
6374;SDS011;35400;45.472;-122.822;2023-03-14T03:22:46;1.00;;;0.90;;
6374;SDS011;35400;45.472;-122.822;2023-03-14T03:25:15;0.77;;;0.70;;
6374;SDS011;35400;45.472;-122.822;2023-03-14T03:27:44;0.80;;;0.80;;
6374;SDS011;35400;45.472;-122.822;2023-03-14T03:30:13;0.93;;;0.70;;
6374;SDS011;35400;45.472;-122.822;2023-03-14T03:32:41;0.90;;;0.90;;
6374;SDS011;35400;45.472;-122.822;2023-03-14T03:35:08;1.73;;;0.70;;
6374;SDS011;35400;45.472;-122.822;2023-03-14T03:37:37;1.00;;;0.80;;
6374;SDS011;35400;45.472;-122.822;2023-03-14T03:40:06;1.63;;;0.70;;
6374;SDS011;35400;45.472;-122.822;2023-03-14T03:42:35;0.87;;;0.70;;
6374;SDS011;35400;45.472;-122.822;2023-03-14T03:45:03;1.27;;;0.80;;
6374;SDS011;35400;45.472;-122.822;2023-03-14T03:47:33;0.70;;;0.70;;
6374;SDS011;35400;45.472;-122.822;2023-03-14T03:50:00;0.83;;;0.80;;
6374;SDS011;35400;45.472;-122.822;2023-03-14T03:52:27;1.93;;;0.90;;
6374;SDS011;35400;45.472;-122.822;2023-03-14T03:54:53;1.10;;;1.07;;
6374;SDS011;35400;45.472;-122.822;2023-03-14T03:57:20;0.90;;;0.90;;
6374;SDS011;35400;45.472;-122.822;2023-03-14T03:59:49;1.40;;;1.30;;
6374;SDS011;35400;45.472;-122.822;2023-03-14T04:02:16;2.37;;;1.10;;
6374;SDS011;35400;45.472;-122.822;2023-03-14T04:04:43;1.30;;;1.20;;
6374;SDS011;35400;45.472;-122.822;2023-03-14T04:07:11;2.60;;;1.70;;
6374;SDS011;35400;45.472;-122.822;2023-03-14T04:09:39;1.70;;;1.60;;
6374;SDS011;35400;45.472;-122.822;2023-03-14T04:12:27;1.60;;;1.50;;
6374;SDS011;35400;45.472;-122.822;2023-03-14T04:15:02;1.83;;;1.73;;
6374;SDS011;35400;45.472;-122.822;2023-03-14T04:17:30;1.90;;;1.70;;
6374;SDS011;35400;45.472;-122.822;2023-03-14T04:19:56;1.57;;;1.47;;
6374;SDS011;35400;45.472;-122.822;2023-03-14T04:22:31;1.40;;;1.30;;
6374;SDS011;35400;45.472;-122.822;2023-03-14T04:25:00;1.67;;;1.40;;
6374;SDS011;35400;45.472;-122.822;2023-03-14T04:27:31;2.10;;;1.50;;
6374;SDS011;35400;45.472;-122.822;2023-03-14T04:30:00;1.83;;;1.73;;
6374;SDS011;35400;45.472;-122.822;2023-03-14T04:32:45;3.10;;;1.80;;
6374;SDS011;35400;45.472;-122.822;2023-03-14T04:35:12;1.77;;;1.60;;
6374;SDS011;35400;45.472;-122.822;2023-03-14T04:37:40;1.80;;;1.70;;
6374;SDS011;35400;45.472;-122.822;2023-03-14T04:40:10;2.50;;;1.80;;
6374;SDS011;35400;45.472;-122.822;2023-03-14T04:42:37;1.70;;;1.60;;
6374;SDS011;35400;45.472;-122.822;2023-03-14T04:45:05;1.57;;;1.47;;
6374;SDS011;35400;45.472;-122.822;2023-03-14T04:47:33;3.27;;;2.20;;
6374;SDS011;35400;45.472;-122.822;2023-03-14T04:50:01;2.03;;;1.83;;
6374;SDS011;35400;45.472;-122.822;2023-03-14T04:52:28;2.23;;;1.43;;
6374;SDS011;35400;45.472;-122.822;2023-03-14T04:54:55;3.50;;;1.80;;
6374;SDS011;35400;45.472;-122.822;2023-03-14T04:57:24;2.67;;;1.60;;
6374;SDS011;35400;45.472;-122.822;2023-03-14T04:59:52;1.80;;;1.70;;
6374;SDS011;35400;45.472;-122.822;2023-03-14T05:02:41;1.60;;;1.50;;
6374;SDS011;35400;45.472;-122.822;2023-03-14T05:05:38;1.57;;;1.47;;
6374;SDS011;35400;45.472;-122.822;2023-03-14T05:08:27;1.90;;;1.60;;
6374;SDS011;35400;45.472;-122.822;2023-03-14T05:11:20;2.97;;;1.83;;
6374;SDS011;35400;45.472;-122.822;2023-03-14T05:14:05;2.33;;;1.83;;
6374;SDS011;35400;45.472;-122.822;2023-03-14T05:16:50;2.50;;;1.87;;
6374;SDS011;35400;45.472;-122.822;2023-03-14T05:19:31;1.93;;;1.83;;
6374;SDS011;35400;45.472;-122.822;2023-03-14T05:22:24;3.30;;;1.90;;
6374;SDS011;35400;45.472;-122.822;2023-03-14T05:25:17;2.00;;;1.80;;
6374;SDS011;35400;45.472;-122.822;2023-03-14T05:28:02;2.00;;;1.80;;
6374;SDS011;35400;45.472;-122.822;2023-03-14T05:30:54;2.70;;;2.10;;
6374;SDS011;35400;45.472;-122.822;2023-03-14T05:33:47;2.27;;;1.63;;
6374;SDS011;35400;45.472;-122.822;2023-03-14T05:36:34;1.97;;;1.87;;
6374;SDS011;35400;45.472;-122.822;2023-03-14T05:39:33;2.37;;;2.17;;
6374;SDS011;35400;45.472;-122.822;2023-03-14T05:42:38;4.37;;;1.93;;
6374;SDS011;35400;45.472;-122.822;2023-03-14T05:45:26;2.00;;;1.90;;
6374;SDS011;35400;45.472;-122.822;2023-03-14T05:48:12;2.30;;;2.10;;
6374;SDS011;35400;45.472;-122.822;2023-03-14T05:50:59;3.60;;;2.40;;
6374;SDS011;35400;45.472;-122.822;2023-03-14T05:53:37;2.40;;;2.13;;
6374;SDS011;35400;45.472;-122.822;2023-03-14T05:56:30;2.70;;;2.37;;
6374;SDS011;35400;45.472;-122.822;2023-03-14T05:59:16;3.73;;;2.37;;
6374;SDS011;35400;45.472;-122.822;2023-03-14T06:02:01;2.43;;;2.03;;
6374;SDS011;35400;45.472;-122.822;2023-03-14T06:04:36;1.93;;;1.83;;
6374;SDS011;35400;45.472;-122.822;2023-03-14T06:07:04;2.50;;;1.83;;
6374;SDS011;35400;45.472;-122.822;2023-03-14T06:09:31;2.47;;;2.30;;
6374;SDS011;35400;45.472;-122.822;2023-03-14T06:12:00;4.50;;;2.50;;
6374;SDS011;35400;45.472;-122.822;2023-03-14T06:14:32;3.53;;;2.27;;
6374;SDS011;35400;45.472;-122.822;2023-03-14T06:16:59;3.77;;;2.10;;
6374;SDS011;35400;45.472;-122.822;2023-03-14T06:19:29;3.90;;;2.63;;
6374;SDS011;35400;45.472;-122.822;2023-03-14T06:21:56;2.43;;;2.23;;
6374;SDS011;35400;45.472;-122.822;2023-03-14T06:24:24;3.20;;;2.53;;
6374;SDS011;35400;45.472;-122.822;2023-03-14T06:26:52;3.33;;;2.40;;
6374;SDS011;35400;45.472;-122.822;2023-03-14T06:29:20;2.77;;;2.27;;
6374;SDS011;35400;45.472;-122.822;2023-03-14T06:31:46;2.83;;;2.60;;
6374;SDS011;35400;45.472;-122.822;2023-03-14T06:34:15;2.60;;;2.40;;
6374;SDS011;35400;45.472;-122.822;2023-03-14T06:36:42;2.80;;;2.60;;
6374;SDS011;35400;45.472;-122.822;2023-03-14T06:39:09;3.63;;;2.63;;
6374;SDS011;35400;45.472;-122.822;2023-03-14T06:41:41;2.67;;;2.43;;
6374;SDS011;35400;45.472;-122.822;2023-03-14T06:44:09;2.90;;;2.47;;
6374;SDS011;35400;45.472;-122.822;2023-03-14T06:46:37;3.03;;;2.77;;
6374;SDS011;35400;45.472;-122.822;2023-03-14T06:49:04;3.60;;;2.70;;
6374;SDS011;35400;45.472;-122.822;2023-03-14T06:51:32;3.17;;;2.63;;
6374;SDS011;35400;45.472;-122.822;2023-03-14T06:54:03;4.23;;;2.70;;
6374;SDS011;35400;45.472;-122.822;2023-03-14T06:56:30;3.90;;;2.60;;
6374;SDS011;35400;45.472;-122.822;2023-03-14T06:58:57;2.40;;;2.20;;
6374;SDS011;35400;45.472;-122.822;2023-03-14T07:01:28;2.87;;;2.53;;
6374;SDS011;35400;45.472;-122.822;2023-03-14T07:04:06;3.17;;;2.13;;
6374;SDS011;35400;45.472;-122.822;2023-03-14T07:06:36;2.37;;;1.90;;
6374;SDS011;35400;45.472;-122.822;2023-03-14T07:09:05;3.03;;;2.30;;
6374;SDS011;35400;45.472;-122.822;2023-03-14T07:11:35;2.47;;;2.07;;
6374;SDS011;35400;45.472;-122.822;2023-03-14T07:14:02;2.20;;;2.00;;
6374;SDS011;35400;45.472;-122.822;2023-03-14T07:16:29;2.93;;;2.50;;
6374;SDS011;35400;45.472;-122.822;2023-03-14T07:18:57;2.63;;;2.43;;
6374;SDS011;35400;45.472;-122.822;2023-03-14T07:21:24;2.10;;;2.00;;
6374;SDS011;35400;45.472;-122.822;2023-03-14T07:23:51;2.83;;;2.40;;
6374;SDS011;35400;45.472;-122.822;2023-03-14T07:26:18;2.30;;;2.10;;
6374;SDS011;35400;45.472;-122.822;2023-03-14T07:28:49;3.50;;;2.57;;
6374;SDS011;35400;45.472;-122.822;2023-03-14T07:31:18;2.70;;;2.40;;
6374;SDS011;35400;45.472;-122.822;2023-03-14T07:33:46;2.47;;;2.20;;
6374;SDS011;35400;45.472;-122.822;2023-03-14T07:36:13;2.43;;;2.07;;
6374;SDS011;35400;45.472;-122.822;2023-03-14T07:38:43;3.33;;;2.37;;
6374;SDS011;35400;45.472;-122.822;2023-03-14T07:41:29;1.67;;;1.57;;
6374;SDS011;35400;45.472;-122.822;2023-03-14T07:44:16;2.20;;;1.77;;
6374;SDS011;35400;45.472;-122.822;2023-03-14T07:46:43;3.27;;;2.07;;
6374;SDS011;35400;45.472;-122.822;2023-03-14T07:49:10;2.60;;;1.80;;
6374;SDS011;35400;45.472;-122.822;2023-03-14T07:51:37;2.17;;;1.60;;
6374;SDS011;35400;45.472;-122.822;2023-03-14T07:54:03;1.73;;;1.53;;
6374;SDS011;35400;45.472;-122.822;2023-03-14T07:56:30;2.30;;;1.90;;
6374;SDS011;35400;45.472;-122.822;2023-03-14T07:58:57;2.20;;;1.70;;
6374;SDS011;35400;45.472;-122.822;2023-03-14T08:01:24;1.70;;;1.60;;
6374;SDS011;35400;45.472;-122.822;2023-03-14T08:03:51;1.50;;;1.40;;
6374;SDS011;35400;45.472;-122.822;2023-03-14T08:06:18;3.70;;;1.50;;
6374;SDS011;35400;45.472;-122.822;2023-03-14T08:08:45;2.53;;;1.70;;
6374;SDS011;35400;45.472;-122.822;2023-03-14T08:11:12;2.87;;;1.73;;
6374;SDS011;35400;45.472;-122.822;2023-03-14T08:13:39;1.60;;;1.50;;
6374;SDS011;35400;45.472;-122.822;2023-03-14T08:16:06;2.03;;;1.80;;
6374;SDS011;35400;45.472;-122.822;2023-03-14T08:18:33;2.37;;;1.70;;
6374;SDS011;35400;45.472;-122.822;2023-03-14T08:21:00;2.23;;;1.50;;
6374;SDS011;35400;45.472;-122.822;2023-03-14T08:23:27;1.67;;;1.50;;
6374;SDS011;35400;45.472;-122.822;2023-03-14T08:25:53;1.90;;;1.80;;
6374;SDS011;35400;45.472;-122.822;2023-03-14T08:28:20;1.80;;;1.70;;
6374;SDS011;35400;45.472;-122.822;2023-03-14T08:30:47;1.97;;;1.70;;
6374;SDS011;35400;45.472;-122.822;2023-03-14T08:33:14;1.60;;;1.50;;
6374;SDS011;35400;45.472;-122.822;2023-03-14T08:35:41;2.73;;;1.60;;
6374;SDS011;35400;45.472;-122.822;2023-03-14T08:38:08;2.53;;;2.13;;
6374;SDS011;35400;45.472;-122.822;2023-03-14T08:40:35;1.93;;;1.70;;
6374;SDS011;35400;45.472;-122.822;2023-03-14T08:43:02;2.50;;;1.70;;
6374;SDS011;35400;45.472;-122.822;2023-03-14T08:45:29;3.83;;;1.83;;
6374;SDS011;35400;45.472;-122.822;2023-03-14T08:47:57;2.00;;;1.80;;
6374;SDS011;35400;45.472;-122.822;2023-03-14T08:50:24;3.17;;;1.90;;
6374;SDS011;35400;45.472;-122.822;2023-03-14T08:52:51;3.03;;;1.60;;
6374;SDS011;35400;45.472;-122.822;2023-03-14T08:55:18;2.00;;;1.70;;
6374;SDS011;35400;45.472;-122.822;2023-03-14T08:57:45;3.60;;;2.00;;
6374;SDS011;35400;45.472;-122.822;2023-03-14T09:00:12;1.80;;;1.70;;
6374;SDS011;35400;45.472;-122.822;2023-03-14T09:02:43;2.87;;;1.73;;
6374;SDS011;35400;45.472;-122.822;2023-03-14T09:05:10;1.97;;;1.77;;
6374;SDS011;35400;45.472;-122.822;2023-03-14T09:07:38;2.10;;;2.00;;
6374;SDS011;35400;45.472;-122.822;2023-03-14T09:10:06;2.63;;;1.57;;
6374;SDS011;35400;45.472;-122.822;2023-03-14T09:12:35;3.40;;;1.70;;
6374;SDS011;35400;45.472;-122.822;2023-03-14T09:15:02;2.20;;;1.93;;
6374;SDS011;35400;45.472;-122.822;2023-03-14T09:17:29;1.90;;;1.80;;
6374;SDS011;35400;45.472;-122.822;2023-03-14T09:19:56;1.80;;;1.67;;
6374;SDS011;35400;45.472;-122.822;2023-03-14T09:22:23;1.80;;;1.70;;
6374;SDS011;35400;45.472;-122.822;2023-03-14T09:24:50;1.87;;;1.77;;
6374;SDS011;35400;45.472;-122.822;2023-03-14T09:27:17;2.37;;;1.73;;
6374;SDS011;35400;45.472;-122.822;2023-03-14T09:29:44;2.70;;;1.60;;
6374;SDS011;35400;45.472;-122.822;2023-03-14T09:32:10;2.10;;;1.60;;
6374;SDS011;35400;45.472;-122.822;2023-03-14T09:34:37;1.60;;;1.50;;
6374;SDS011;35400;45.472;-122.822;2023-03-14T09:37:04;1.43;;;1.33;;
6374;SDS011;35400;45.472;-122.822;2023-03-14T09:39:31;2.90;;;1.40;;
6374;SDS011;35400;45.472;-122.822;2023-03-14T09:41:58;1.50;;;1.40;;
6374;SDS011;35400;45.472;-122.822;2023-03-14T09:44:31;1.67;;;1.30;;
6374;SDS011;35400;45.472;-122.822;2023-03-14T09:47:03;1.60;;;1.20;;
6374;SDS011;35400;45.472;-122.822;2023-03-14T09:49:34;1.47;;;1.27;;
6374;SDS011;35400;45.472;-122.822;2023-03-14T09:52:11;1.77;;;1.30;;
6374;SDS011;35400;45.472;-122.822;2023-03-14T09:54:46;1.40;;;1.20;;
6374;SDS011;35400;45.472;-122.822;2023-03-14T09:57:20;1.53;;;1.00;;
6374;SDS011;35400;45.472;-122.822;2023-03-14T09:59:50;1.33;;;1.23;;
6374;SDS011;35400;45.472;-122.822;2023-03-14T10:02:24;1.10;;;1.00;;
6374;SDS011;35400;45.472;-122.822;2023-03-14T10:04:54;0.90;;;0.90;;
6374;SDS011;35400;45.472;-122.822;2023-03-14T10:07:28;1.43;;;1.23;;
6374;SDS011;35400;45.472;-122.822;2023-03-14T10:09:58;1.00;;;0.90;;
6374;SDS011;35400;45.472;-122.822;2023-03-14T10:12:35;1.20;;;1.00;;
6374;SDS011;35400;45.472;-122.822;2023-03-14T10:15:08;1.37;;;1.27;;
6374;SDS011;35400;45.472;-122.822;2023-03-14T10:17:49;1.03;;;0.93;;
6374;SDS011;35400;45.472;-122.822;2023-03-14T10:20:31;1.30;;;1.03;;
6374;SDS011;35400;45.472;-122.822;2023-03-14T10:23:02;1.40;;;1.20;;
6374;SDS011;35400;45.472;-122.822;2023-03-14T10:26:03;1.00;;;0.90;;
6374;SDS011;35400;45.472;-122.822;2023-03-14T10:31:18;1.27;;;1.00;;
6374;SDS011;35400;45.472;-122.822;2023-03-14T10:33:58;1.70;;;1.00;;
6374;SDS011;35400;45.472;-122.822;2023-03-14T10:36:28;1.10;;;0.97;;
6374;SDS011;35400;45.472;-122.822;2023-03-14T10:38:58;2.50;;;1.47;;
6374;SDS011;35400;45.472;-122.822;2023-03-14T10:41:50;1.83;;;1.00;;
6374;SDS011;35400;45.472;-122.822;2023-03-14T10:44:21;1.40;;;0.93;;
6374;SDS011;35400;45.472;-122.822;2023-03-14T10:47:01;1.03;;;0.90;;
6374;SDS011;35400;45.472;-122.822;2023-03-14T10:49:31;4.27;;;1.17;;
6374;SDS011;35400;45.472;-122.822;2023-03-14T10:54:39;1.80;;;1.30;;
6374;SDS011;35400;45.472;-122.822;2023-03-14T10:57:06;1.43;;;0.90;;
6374;SDS011;35400;45.472;-122.822;2023-03-14T10:59:35;1.20;;;0.93;;
6374;SDS011;35400;45.472;-122.822;2023-03-14T11:08:20;1.23;;;1.13;;
6374;SDS011;35400;45.472;-122.822;2023-03-14T11:30:35;1.20;;;1.10;;
6374;SDS011;35400;45.472;-122.822;2023-03-14T11:33:16;1.70;;;1.10;;
6374;SDS011;35400;45.472;-122.822;2023-03-14T11:38:49;1.70;;;1.47;;
6374;SDS011;35400;45.472;-122.822;2023-03-14T11:41:34;2.77;;;1.53;;
6374;SDS011;35400;45.472;-122.822;2023-03-14T11:44:16;1.70;;;1.60;;
6374;SDS011;35400;45.472;-122.822;2023-03-14T11:46:54;2.90;;;1.50;;
6374;SDS011;35400;45.472;-122.822;2023-03-14T11:49:38;4.27;;;1.20;;
6374;SDS011;35400;45.472;-122.822;2023-03-14T11:52:14;2.40;;;1.30;;
6374;SDS011;35400;45.472;-122.822;2023-03-14T11:54:57;1.53;;;1.40;;
6374;SDS011;35400;45.472;-122.822;2023-03-14T11:57:43;2.27;;;1.10;;
6374;SDS011;35400;45.472;-122.822;2023-03-14T12:00:14;1.90;;;1.20;;
6374;SDS011;35400;45.472;-122.822;2023-03-14T12:02:56;1.40;;;1.30;;
6374;SDS011;35400;45.472;-122.822;2023-03-14T12:05:39;1.73;;;0.97;;
6374;SDS011;35400;45.472;-122.822;2023-03-14T12:08:39;2.20;;;1.20;;
6374;SDS011;35400;45.472;-122.822;2023-03-14T12:11:36;3.97;;;1.60;;
6374;SDS011;35400;45.472;-122.822;2023-03-14T12:14:18;1.77;;;1.20;;
6374;SDS011;35400;45.472;-122.822;2023-03-14T12:16:50;2.53;;;1.50;;
6374;SDS011;35400;45.472;-122.822;2023-03-14T12:21:57;1.77;;;1.43;;
6374;SDS011;35400;45.472;-122.822;2023-03-14T12:24:27;1.30;;;1.20;;
6374;SDS011;35400;45.472;-122.822;2023-03-14T12:26:57;3.30;;;1.57;;
6374;SDS011;35400;45.472;-122.822;2023-03-14T12:29:25;1.53;;;1.43;;
6374;SDS011;35400;45.472;-122.822;2023-03-14T12:34:43;1.80;;;1.40;;
6374;SDS011;35400;45.472;-122.822;2023-03-14T12:37:17;2.53;;;1.40;;
6374;SDS011;35400;45.472;-122.822;2023-03-14T12:42:43;2.00;;;1.30;;
6374;SDS011;35400;45.472;-122.822;2023-03-14T12:45:30;1.43;;;1.30;;
6374;SDS011;35400;45.472;-122.822;2023-03-14T12:50:36;1.27;;;1.13;;
6374;SDS011;35400;45.472;-122.822;2023-03-14T13:01:47;2.30;;;1.30;;
6374;SDS011;35400;45.472;-122.822;2023-03-14T13:04:48;1.27;;;1.10;;
6374;SDS011;35400;45.472;-122.822;2023-03-14T13:12:38;1.83;;;1.20;;
6374;SDS011;35400;45.472;-122.822;2023-03-14T13:15:14;1.37;;;1.27;;
6374;SDS011;35400;45.472;-122.822;2023-03-14T13:17:49;1.70;;;1.20;;
6374;SDS011;35400;45.472;-122.822;2023-03-14T13:20:21;1.70;;;1.50;;
6374;SDS011;35400;45.472;-122.822;2023-03-14T13:23:00;1.97;;;1.60;;
6374;SDS011;35400;45.472;-122.822;2023-03-14T13:25:34;2.63;;;1.57;;
6374;SDS011;35400;45.472;-122.822;2023-03-14T13:28:02;2.27;;;1.00;;
6374;SDS011;35400;45.472;-122.822;2023-03-14T13:30:35;1.30;;;1.20;;
6374;SDS011;35400;45.472;-122.822;2023-03-14T13:33:11;1.70;;;1.60;;
6374;SDS011;35400;45.472;-122.822;2023-03-14T13:35:44;2.37;;;1.57;;
6374;SDS011;35400;45.472;-122.822;2023-03-14T13:38:17;1.40;;;1.20;;
6374;SDS011;35400;45.472;-122.822;2023-03-14T13:40:46;1.40;;;1.10;;
6374;SDS011;35400;45.472;-122.822;2023-03-14T13:46:04;1.73;;;1.37;;
6374;SDS011;35400;45.472;-122.822;2023-03-14T13:48:49;2.43;;;1.40;;
6374;SDS011;35400;45.472;-122.822;2023-03-14T13:51:22;1.40;;;1.30;;
6374;SDS011;35400;45.472;-122.822;2023-03-14T13:53:51;2.47;;;1.30;;
6374;SDS011;35400;45.472;-122.822;2023-03-14T13:56:21;1.87;;;1.30;;
6374;SDS011;35400;45.472;-122.822;2023-03-14T13:58:49;1.53;;;1.10;;
6374;SDS011;35400;45.472;-122.822;2023-03-14T14:01:17;1.83;;;1.40;;
6374;SDS011;35400;45.472;-122.822;2023-03-14T14:03:58;1.47;;;1.20;;
6374;SDS011;35400;45.472;-122.822;2023-03-14T14:06:37;2.03;;;1.67;;
6374;SDS011;35400;45.472;-122.822;2023-03-14T14:09:19;1.33;;;1.20;;
6374;SDS011;35400;45.472;-122.822;2023-03-14T14:11:55;1.33;;;1.23;;
6374;SDS011;35400;45.472;-122.822;2023-03-14T14:14:36;1.60;;;1.50;;
6374;SDS011;35400;45.472;-122.822;2023-03-14T14:17:45;1.57;;;1.37;;
6374;SDS011;35400;45.472;-122.822;2023-03-14T14:23:04;1.70;;;1.60;;
6374;SDS011;35400;45.472;-122.822;2023-03-14T14:25:35;1.50;;;1.40;;
6374;SDS011;35400;45.472;-122.822;2023-03-14T14:28:22;1.53;;;1.43;;
6374;SDS011;35400;45.472;-122.822;2023-03-14T14:31:04;2.93;;;2.20;;
6374;SDS011;35400;45.472;-122.822;2023-03-14T14:33:40;3.73;;;1.67;;
6374;SDS011;35400;45.472;-122.822;2023-03-14T14:36:19;2.40;;;1.90;;
6374;SDS011;35400;45.472;-122.822;2023-03-14T14:38:51;3.20;;;2.37;;
6374;SDS011;35400;45.472;-122.822;2023-03-14T14:41:28;2.63;;;2.10;;
6374;SDS011;35400;45.472;-122.822;2023-03-14T14:43:57;2.10;;;1.90;;
6374;SDS011;35400;45.472;-122.822;2023-03-14T14:46:26;2.20;;;2.00;;
6374;SDS011;35400;45.472;-122.822;2023-03-14T14:48:56;1.90;;;1.70;;
6374;SDS011;35400;45.472;-122.822;2023-03-14T14:51:31;3.73;;;2.27;;
6374;SDS011;35400;45.472;-122.822;2023-03-14T14:54:01;2.30;;;1.90;;
6374;SDS011;35400;45.472;-122.822;2023-03-14T14:56:52;2.73;;;2.23;;
6374;SDS011;35400;45.472;-122.822;2023-03-14T14:59:28;3.43;;;2.23;;
6374;SDS011;35400;45.472;-122.822;2023-03-14T15:01:55;3.83;;;2.33;;
6374;SDS011;35400;45.472;-122.822;2023-03-14T15:04:27;2.10;;;1.90;;
6374;SDS011;35400;45.472;-122.822;2023-03-14T15:06:57;2.87;;;2.10;;
6374;SDS011;35400;45.472;-122.822;2023-03-14T15:09:24;2.73;;;2.17;;
6374;SDS011;35400;45.472;-122.822;2023-03-14T15:11:51;4.57;;;2.10;;
6374;SDS011;35400;45.472;-122.822;2023-03-14T15:14:18;4.90;;;2.00;;
6374;SDS011;35400;45.472;-122.822;2023-03-14T15:16:45;2.67;;;2.10;;
6374;SDS011;35400;45.472;-122.822;2023-03-14T15:19:15;2.90;;;2.00;;
6374;SDS011;35400;45.472;-122.822;2023-03-14T15:21:51;2.50;;;2.10;;
6374;SDS011;35400;45.472;-122.822;2023-03-14T15:24:18;2.57;;;2.33;;
6374;SDS011;35400;45.472;-122.822;2023-03-14T15:26:46;2.97;;;2.30;;
6374;SDS011;35400;45.472;-122.822;2023-03-14T15:29:13;2.20;;;2.00;;
6374;SDS011;35400;45.472;-122.822;2023-03-14T15:31:40;2.47;;;2.27;;
6374;SDS011;35400;45.472;-122.822;2023-03-14T15:34:09;2.60;;;2.40;;
6374;SDS011;35400;45.472;-122.822;2023-03-14T15:36:36;3.40;;;2.77;;
6374;SDS011;35400;45.472;-122.822;2023-03-14T15:39:05;4.53;;;2.80;;
6374;SDS011;35400;45.472;-122.822;2023-03-14T15:41:32;4.03;;;2.90;;
6374;SDS011;35400;45.472;-122.822;2023-03-14T15:43:59;4.63;;;3.07;;
6374;SDS011;35400;45.472;-122.822;2023-03-14T15:46:26;6.33;;;3.30;;
6374;SDS011;35400;45.472;-122.822;2023-03-14T15:48:53;4.33;;;3.60;;
6374;SDS011;35400;45.472;-122.822;2023-03-14T15:51:20;3.73;;;2.83;;
6374;SDS011;35400;45.472;-122.822;2023-03-14T15:53:47;3.10;;;2.60;;
6374;SDS011;35400;45.472;-122.822;2023-03-14T15:56:15;4.53;;;2.90;;
6374;SDS011;35400;45.472;-122.822;2023-03-14T15:58:44;4.93;;;3.40;;
6374;SDS011;35400;45.472;-122.822;2023-03-14T16:01:14;3.57;;;2.80;;
6374;SDS011;35400;45.472;-122.822;2023-03-14T16:03:42;2.87;;;2.40;;